createdAt,value
2017-06-10T00:01:08.730Z,927.32
2017-06-10T00:01:36.931Z,927.22
2017-06-10T00:02:05.253Z,927.22
2017-06-10T00:02:33.655Z,927.21
2017-06-10T00:03:01.743Z,927.16
2017-06-10T00:03:30.060Z,927.17
2017-06-10T00:03:58.269Z,927.16
2017-06-10T00:04:26.400Z,927.19
2017-06-10T00:04:54.650Z,927.22
2017-06-10T00:05:22.934Z,927.24
2017-06-10T00:05:51.289Z,927.28
2017-06-10T00:07:02.641Z,927.31
2017-06-10T00:07:30.838Z,927.3
2017-06-10T00:07:59.163Z,927.32
2017-06-10T00:08:27.474Z,927.28
2017-06-10T00:08:55.754Z,927.31
2017-06-10T00:09:23.981Z,927.35
2017-06-10T00:09:52.281Z,927.29
2017-06-10T00:10:20.611Z,927.33
2017-06-10T00:10:48.959Z,927.38
2017-06-10T00:11:17.246Z,927.44
2017-06-10T00:11:45.490Z,927.5
2017-06-10T00:12:56.803Z,927.53
2017-06-10T00:13:25.084Z,927.53
2017-06-10T00:13:53.287Z,927.46
2017-06-10T00:14:21.453Z,927.46
2017-06-10T00:14:49.737Z,927.46
2017-06-10T00:15:17.924Z,927.48
2017-06-10T00:15:45.911Z,927.54
2017-06-10T00:16:14.016Z,927.56
2017-06-10T00:16:42.240Z,927.61
2017-06-10T00:17:10.490Z,927.58
2017-06-10T00:17:38.812Z,927.52
2017-06-10T00:18:50.023Z,927.54
2017-06-10T00:19:18.320Z,927.49
2017-06-10T00:19:46.614Z,927.44
2017-06-10T00:20:14.914Z,927.42
2017-06-10T00:20:43.113Z,927.42
2017-06-10T00:21:11.384Z,927.35
2017-06-10T00:21:39.685Z,927.35
2017-06-10T00:22:07.774Z,927.35
2017-06-10T00:22:36.073Z,927.31
2017-06-10T00:23:04.357Z,927.37
2017-06-10T00:23:32.528Z,927.41
2017-06-10T00:24:43.849Z,927.42
2017-06-10T00:25:12.028Z,927.4
2017-06-10T00:25:40.212Z,927.37
2017-06-10T00:26:08.475Z,927.33
2017-06-10T00:26:36.519Z,927.38
2017-06-10T00:27:04.690Z,927.44
2017-06-10T00:27:32.986Z,927.46
2017-06-10T00:28:01.167Z,927.46
2017-06-10T00:28:29.469Z,927.5
2017-06-10T00:28:57.849Z,927.52
2017-06-10T00:29:26.151Z,927.6
2017-06-10T00:30:37.365Z,927.66
2017-06-10T00:31:05.609Z,927.78
2017-06-10T00:31:33.711Z,927.92
2017-06-10T00:32:02.109Z,927.95
2017-06-10T00:32:30.349Z,927.94
2017-06-10T00:32:58.572Z,927.96
2017-06-10T00:33:26.638Z,927.95
2017-06-10T00:33:54.846Z,927.88
2017-06-10T00:34:23.146Z,927.91
2017-06-10T00:34:51.503Z,927.9
2017-06-10T00:35:19.528Z,927.86
2017-06-10T00:36:30.637Z,927.85
2017-06-10T00:36:58.832Z,927.85
2017-06-10T00:37:27.028Z,927.83
2017-06-10T00:37:55.344Z,927.77
2017-06-10T00:38:23.576Z,927.77
2017-06-10T00:38:51.840Z,927.74
2017-06-10T00:39:19.953Z,927.7
2017-06-10T00:39:48.140Z,927.68
2017-06-10T00:40:16.447Z,927.64
2017-06-10T00:40:44.686Z,927.6
2017-06-10T00:41:13.042Z,927.58
2017-06-10T00:42:24.343Z,927.52
2017-06-10T00:42:52.516Z,927.38
2017-06-10T00:43:20.837Z,927.36
2017-06-10T00:43:49.150Z,927.27
2017-06-10T00:44:17.328Z,927.25
2017-06-10T00:44:45.515Z,927.16
2017-06-10T00:45:13.771Z,927.15
2017-06-10T00:45:41.974Z,927.11
2017-06-10T00:46:10.321Z,927.07
2017-06-10T00:46:38.585Z,927.01
2017-06-10T00:47:06.698Z,927.05
2017-06-10T00:48:17.906Z,927.03
2017-06-10T00:48:46.161Z,927
2017-06-10T00:49:14.490Z,927.03
2017-06-10T00:49:42.894Z,927.03
2017-06-10T00:50:11.050Z,927.09
2017-06-10T00:50:39.338Z,927.21
2017-06-10T00:51:07.595Z,927.32
2017-06-10T00:51:35.783Z,927.39
2017-06-10T00:52:04.083Z,927.51
2017-06-10T00:52:32.409Z,927.56
2017-06-10T00:53:00.617Z,927.59
2017-06-10T00:54:11.728Z,927.65
2017-06-10T00:54:40.029Z,927.7
2017-06-10T00:55:08.336Z,927.69
2017-06-10T00:55:36.589Z,927.73
2017-06-10T00:56:04.633Z,927.76
2017-06-10T00:56:32.804Z,927.79
2017-06-10T00:57:01.055Z,927.75
2017-06-10T00:57:29.240Z,927.72
2017-06-10T00:57:57.546Z,927.78
2017-06-10T00:58:25.784Z,927.78
2017-06-10T00:58:53.935Z,927.82
2017-06-10T01:00:05.235Z,927.82
2017-06-10T01:00:33.483Z,927.85
2017-06-10T01:01:01.766Z,927.9
2017-06-10T01:01:29.908Z,927.85
2017-06-10T01:01:57.950Z,927.91
2017-06-10T01:02:26.226Z,927.9
2017-06-10T01:02:54.519Z,927.93
2017-06-10T01:03:22.744Z,927.95
2017-06-10T01:03:50.953Z,927.93
2017-06-10T01:04:19.092Z,927.93
2017-06-10T01:04:47.436Z,927.96
2017-06-10T01:05:58.640Z,927.9
2017-06-10T01:06:26.786Z,927.9
2017-06-10T01:06:55.069Z,927.84
2017-06-10T01:07:23.161Z,927.76
2017-06-10T01:07:51.064Z,927.7
2017-06-10T01:08:19.380Z,927.63
2017-06-10T01:08:47.591Z,927.6
2017-06-10T01:09:15.733Z,927.6
2017-06-10T01:09:43.993Z,927.64
2017-06-10T01:10:12.368Z,927.67
2017-06-10T01:10:40.712Z,927.73
2017-06-10T01:11:51.947Z,927.74
2017-06-10T01:12:20.236Z,927.74
2017-06-10T01:12:48.576Z,927.73
2017-06-10T01:13:16.973Z,927.77
2017-06-10T01:13:45.309Z,927.77
2017-06-10T01:14:13.535Z,927.76
2017-06-10T01:14:41.747Z,927.74
2017-06-10T01:15:10.125Z,927.75
2017-06-10T01:15:38.505Z,927.74
2017-06-10T01:16:06.784Z,927.75
2017-06-10T01:16:35.257Z,927.75
2017-06-10T01:17:46.619Z,927.73
2017-06-10T01:18:14.921Z,927.79
2017-06-10T01:18:43.163Z,927.84
2017-06-10T01:19:11.644Z,927.83
2017-06-10T01:19:39.774Z,927.88
2017-06-10T01:20:08.093Z,927.94
2017-06-10T01:20:36.300Z,928.01
2017-06-10T01:21:04.613Z,928.03
2017-06-10T01:21:32.963Z,928.07
2017-06-10T01:22:01.366Z,928.14
2017-06-10T01:22:29.531Z,928.11
2017-06-10T01:23:40.799Z,928.14
2017-06-10T01:24:09.135Z,928.2
2017-06-10T01:24:37.459Z,928.19
2017-06-10T01:25:05.670Z,928.21
2017-06-10T01:25:34.067Z,928.21
2017-06-10T01:26:02.375Z,928.26
2017-06-10T01:26:30.617Z,928.23
2017-06-10T01:26:58.940Z,928.22
2017-06-10T01:27:27.334Z,928.23
2017-06-10T01:27:55.621Z,928.24
2017-06-10T01:28:23.975Z,928.23
2017-06-10T01:29:35.092Z,928.18
2017-06-10T01:30:03.392Z,928.16
2017-06-10T01:30:31.748Z,928.12
2017-06-10T01:31:00.151Z,928.09
2017-06-10T01:31:28.430Z,928.03
2017-06-10T01:31:56.701Z,928.01
2017-06-10T01:32:25.077Z,928.03
2017-06-10T01:32:53.402Z,927.99
2017-06-10T01:33:21.745Z,927.98
2017-06-10T01:33:50.123Z,927.97
2017-06-10T01:34:18.479Z,927.94
2017-06-10T01:35:29.775Z,927.89
2017-06-10T01:35:58.136Z,927.84
2017-06-10T01:36:26.395Z,927.87
2017-06-10T01:36:54.792Z,927.83
2017-06-10T01:37:22.886Z,927.81
2017-06-10T01:37:51.235Z,927.85
2017-06-10T01:38:19.457Z,927.83
2017-06-10T01:38:47.505Z,927.86
2017-06-10T01:39:15.907Z,927.9
2017-06-10T01:39:44.284Z,927.92
2017-06-10T01:40:12.645Z,927.92
2017-06-10T01:41:23.908Z,927.97
2017-06-10T01:41:52.195Z,928.05
2017-06-10T01:42:20.564Z,928.06
2017-06-10T01:42:48.871Z,928.04
2017-06-10T01:43:17.065Z,928.02
2017-06-10T01:43:45.380Z,927.95
2017-06-10T01:44:13.591Z,927.92
2017-06-10T01:44:41.879Z,927.82
2017-06-10T01:45:10.229Z,927.83
2017-06-10T01:45:38.604Z,927.8
2017-06-10T01:46:06.667Z,927.78
2017-06-10T01:47:17.927Z,927.78
2017-06-10T01:47:46.147Z,927.82
2017-06-10T01:48:14.385Z,927.85
2017-06-10T01:48:42.723Z,927.85
2017-06-10T01:49:10.904Z,927.86
2017-06-10T01:49:39.169Z,927.88
2017-06-10T01:50:07.425Z,927.88
2017-06-10T01:50:35.751Z,927.9
2017-06-10T01:51:04.100Z,927.92
2017-06-10T01:51:32.481Z,927.96
2017-06-10T01:52:00.683Z,927.97
2017-06-10T01:53:11.979Z,928.04
2017-06-10T01:53:40.185Z,928.06
2017-06-10T01:54:08.560Z,928.05
2017-06-10T01:54:37.015Z,928.07
2017-06-10T01:55:05.005Z,928.08
2017-06-10T01:55:33.255Z,928.03
2017-06-10T01:56:01.365Z,928.06
2017-06-10T01:56:29.593Z,928.01
2017-06-10T01:56:57.851Z,928.01
2017-06-10T01:57:26.132Z,928
2017-06-10T01:57:54.434Z,927.96
2017-06-10T01:59:05.756Z,927.96
2017-06-10T01:59:34.015Z,928.04
2017-06-10T02:00:02.244Z,927.98
2017-06-10T02:00:30.641Z,928.01
2017-06-10T02:00:58.729Z,928
2017-06-10T02:01:26.948Z,928.01
2017-06-10T02:01:55.046Z,927.97
2017-06-10T02:02:23.340Z,927.98
2017-06-10T02:02:51.645Z,927.93
2017-06-10T02:03:19.878Z,927.91
2017-06-10T02:03:48.184Z,927.95
2017-06-10T02:04:59.201Z,927.88
2017-06-10T02:05:27.353Z,927.87
2017-06-10T02:05:55.625Z,927.85
2017-06-10T02:06:23.990Z,927.87
2017-06-10T02:06:52.120Z,927.86
2017-06-10T02:07:20.320Z,927.87
2017-06-10T02:07:48.594Z,927.9
2017-06-10T02:08:16.781Z,927.92
2017-06-10T02:08:44.996Z,927.86
2017-06-10T02:09:13.234Z,927.91
2017-06-10T02:09:41.537Z,927.9
2017-06-10T02:10:52.660Z,927.9
2017-06-10T02:11:20.907Z,927.9
2017-06-10T02:11:49.383Z,927.92
2017-06-10T02:12:17.553Z,927.9
2017-06-10T02:12:45.782Z,927.88
2017-06-10T02:13:14.047Z,927.92
2017-06-10T02:13:42.213Z,927.94
2017-06-10T02:14:10.307Z,927.96
2017-06-10T02:14:38.623Z,927.95
2017-06-10T02:15:06.962Z,927.97
2017-06-10T02:15:35.080Z,927.96
2017-06-10T02:16:46.624Z,927.98
2017-06-10T02:17:14.778Z,927.94
2017-06-10T02:17:43.068Z,927.98
2017-06-10T02:18:11.227Z,927.98
2017-06-10T02:18:39.268Z,927.99
2017-06-10T02:19:07.347Z,927.97
2017-06-10T02:19:35.599Z,927.99
2017-06-10T02:20:03.690Z,927.99
2017-06-10T02:20:31.989Z,928.03
2017-06-10T02:21:00.222Z,927.98
2017-06-10T02:21:28.549Z,928.01
2017-06-10T02:22:39.802Z,928.03
2017-06-10T02:23:08.096Z,928.11
2017-06-10T02:23:36.423Z,928.1
2017-06-10T02:24:04.704Z,928.15
2017-06-10T02:24:32.875Z,928.15
2017-06-10T02:25:01.100Z,928.16
2017-06-10T02:25:29.098Z,928.16
2017-06-10T02:25:57.047Z,928.1
2017-06-10T02:26:25.377Z,928.11
2017-06-10T02:26:53.634Z,928.08
2017-06-10T02:27:21.979Z,928.01
2017-06-10T02:28:33.232Z,927.98
2017-06-10T02:29:01.491Z,927.93
2017-06-10T02:29:29.798Z,927.92
2017-06-10T02:29:58.150Z,927.9
2017-06-10T02:30:26.333Z,927.85
2017-06-10T02:30:54.647Z,927.86
2017-06-10T02:31:22.943Z,927.83
2017-06-10T02:31:51.225Z,927.82
2017-06-10T02:32:19.571Z,927.81
2017-06-10T02:32:47.925Z,927.8
2017-06-10T02:33:15.979Z,927.77
2017-06-10T02:34:27.139Z,927.78
2017-06-10T02:34:55.339Z,927.77
2017-06-10T02:35:23.664Z,927.81
2017-06-10T02:35:52.067Z,927.78
2017-06-10T02:36:20.254Z,927.8
2017-06-10T02:36:48.379Z,927.83
2017-06-10T02:37:16.406Z,927.81
2017-06-10T02:37:44.639Z,927.78
2017-06-10T02:38:12.992Z,927.8
2017-06-10T02:38:41.365Z,927.84
2017-06-10T02:39:09.526Z,927.83
2017-06-10T02:40:20.883Z,927.88
2017-06-10T02:40:49.175Z,927.92
2017-06-10T02:41:17.405Z,927.91
2017-06-10T02:41:45.808Z,927.9
2017-06-10T02:42:13.994Z,927.82
2017-06-10T02:42:42.215Z,927.83
2017-06-10T02:43:10.424Z,927.76
2017-06-10T02:43:38.652Z,927.75
2017-06-10T02:44:06.909Z,927.7
2017-06-10T02:44:35.194Z,927.68
2017-06-10T02:45:03.543Z,927.66
2017-06-10T02:46:14.806Z,927.65
2017-06-10T02:46:43.119Z,927.6
2017-06-10T02:47:11.425Z,927.59
2017-06-10T02:47:39.731Z,927.54
2017-06-10T02:48:08.003Z,927.55
2017-06-10T02:48:36.227Z,927.5
2017-06-10T02:49:04.528Z,927.52
2017-06-10T02:49:32.851Z,927.48
2017-06-10T02:50:01.203Z,927.5
2017-06-10T02:50:29.578Z,927.51
2017-06-10T02:50:57.859Z,927.54
2017-06-10T02:52:09.188Z,927.54
2017-06-10T02:52:37.391Z,927.55
2017-06-10T02:53:05.708Z,927.52
2017-06-10T02:53:34.108Z,927.56
2017-06-10T02:54:02.292Z,927.57
2017-06-10T02:54:30.600Z,927.57
2017-06-10T02:54:58.808Z,927.54
2017-06-10T02:55:27.040Z,927.57
2017-06-10T02:55:55.292Z,927.59
2017-06-10T02:56:23.576Z,927.66
2017-06-10T02:56:51.837Z,927.67
2017-06-10T02:58:03.094Z,927.7
2017-06-10T02:58:31.294Z,927.7
2017-06-10T02:58:59.530Z,927.64
2017-06-10T02:59:27.744Z,927.64
2017-06-10T02:59:56.027Z,927.66
2017-06-10T03:00:24.340Z,927.69
2017-06-10T03:00:52.270Z,927.69
2017-06-10T03:01:20.595Z,927.72
2017-06-10T03:01:48.945Z,927.72
2017-06-10T03:02:17.318Z,927.72
2017-06-10T03:02:45.578Z,927.73
2017-06-10T03:03:56.935Z,927.77
2017-06-10T03:04:25.228Z,927.79
2017-06-10T03:04:53.550Z,927.8
2017-06-10T03:05:21.857Z,927.78
2017-06-10T03:05:49.949Z,927.74
2017-06-10T03:06:18.167Z,927.78
2017-06-10T03:06:46.379Z,927.73
2017-06-10T03:07:14.706Z,927.72
2017-06-10T03:07:42.969Z,927.73
2017-06-10T03:08:11.347Z,927.71
2017-06-10T03:08:39.704Z,927.65
2017-06-10T03:09:50.967Z,927.64
2017-06-10T03:10:19.254Z,927.65
2017-06-10T03:10:47.576Z,927.61
2017-06-10T03:11:15.880Z,927.6
2017-06-10T03:11:44.065Z,927.64
2017-06-10T03:12:12.287Z,927.64
2017-06-10T03:12:40.490Z,927.64
2017-06-10T03:13:08.723Z,927.69
2017-06-10T03:13:37.071Z,927.71
2017-06-10T03:14:05.444Z,927.71
2017-06-10T03:14:33.696Z,927.79
2017-06-10T03:15:44.862Z,927.74
2017-06-10T03:16:13.153Z,927.8
2017-06-10T03:16:41.380Z,927.78
2017-06-10T03:17:09.591Z,927.77
2017-06-10T03:17:37.586Z,927.77
2017-06-10T03:18:05.800Z,927.76
2017-06-10T03:18:34.007Z,927.77
2017-06-10T03:19:02.334Z,927.78
2017-06-10T03:19:30.683Z,927.72
2017-06-10T03:19:59.074Z,927.72
2017-06-10T03:20:27.417Z,927.71
2017-06-10T03:21:38.675Z,927.75
2017-06-10T03:22:06.972Z,927.68
2017-06-10T03:22:35.297Z,927.72
2017-06-10T03:23:03.693Z,927.65
2017-06-10T03:23:31.786Z,927.64
2017-06-10T03:24:00.101Z,927.65
2017-06-10T03:24:28.209Z,927.59
2017-06-10T03:24:56.440Z,927.64
2017-06-10T03:25:24.794Z,927.65
2017-06-10T03:25:53.079Z,927.73
2017-06-10T03:26:21.337Z,927.72
2017-06-10T03:27:32.692Z,927.79
2017-06-10T03:28:00.888Z,927.9
2017-06-10T03:28:29.215Z,927.96
2017-06-10T03:28:57.524Z,927.9
2017-06-10T03:29:25.704Z,927.95
2017-06-10T03:29:54.013Z,927.91
2017-06-10T03:30:22.224Z,927.87
2017-06-10T03:30:50.457Z,927.88
2017-06-10T03:31:18.815Z,927.86
2017-06-10T03:31:47.189Z,927.87
2017-06-10T03:32:15.444Z,927.87
2017-06-10T03:33:26.796Z,927.83
2017-06-10T03:33:54.995Z,927.76
2017-06-10T03:34:23.223Z,927.72
2017-06-10T03:34:51.530Z,927.69
2017-06-10T03:35:19.711Z,927.65
2017-06-10T03:35:47.938Z,927.62
2017-06-10T03:36:16.233Z,927.64
2017-06-10T03:36:44.373Z,927.66
2017-06-10T03:37:12.724Z,927.69
2017-06-10T03:37:41.012Z,927.7
2017-06-10T03:38:09.273Z,927.73
2017-06-10T03:39:20.440Z,927.78
2017-06-10T03:39:48.640Z,927.75
2017-06-10T03:40:16.871Z,927.75
2017-06-10T03:40:45.272Z,927.7
2017-06-10T03:41:13.456Z,927.75
2017-06-10T03:41:41.767Z,927.71
2017-06-10T03:42:09.884Z,927.7
2017-06-10T03:42:38.111Z,927.69
2017-06-10T03:43:06.364Z,927.7
2017-06-10T03:43:34.646Z,927.67
2017-06-10T03:44:02.903Z,927.68
2017-06-10T03:45:14.070Z,927.65
2017-06-10T03:45:42.182Z,927.59
2017-06-10T03:46:10.409Z,927.58
2017-06-10T03:46:38.713Z,927.57
2017-06-10T03:47:06.985Z,927.56
2017-06-10T03:47:35.301Z,927.54
2017-06-10T03:48:03.596Z,927.56
2017-06-10T03:48:31.733Z,927.58
2017-06-10T03:49:00.080Z,927.62
2017-06-10T03:49:28.458Z,927.65
2017-06-10T03:49:56.713Z,927.7
2017-06-10T03:51:07.969Z,927.73
2017-06-10T03:51:36.266Z,927.81
2017-06-10T03:52:04.504Z,927.85
2017-06-10T03:52:32.811Z,927.84
2017-06-10T03:53:01.004Z,927.86
2017-06-10T03:53:29.127Z,927.85
2017-06-10T03:53:57.427Z,927.86
2017-06-10T03:54:25.752Z,927.89
2017-06-10T03:54:54.007Z,927.85
2017-06-10T03:55:22.388Z,927.86
2017-06-10T03:55:50.549Z,927.87
2017-06-10T03:57:01.814Z,927.87
2017-06-10T03:57:30.023Z,927.81
2017-06-10T03:57:58.347Z,927.8
2017-06-10T03:58:26.653Z,927.79
2017-06-10T03:58:54.936Z,927.8
2017-06-10T03:59:23.162Z,927.81
2017-06-10T03:59:51.464Z,927.79
2017-06-10T04:00:19.790Z,927.8
2017-06-10T04:00:48.051Z,927.8
2017-06-10T04:01:16.242Z,927.82
2017-06-10T04:01:44.602Z,927.8
2017-06-10T04:02:55.874Z,927.78
2017-06-10T04:03:24.077Z,927.7
2017-06-10T04:03:52.318Z,927.68
2017-06-10T04:04:20.627Z,927.71
2017-06-10T04:04:48.813Z,927.67
2017-06-10T04:05:17.123Z,927.7
2017-06-10T04:05:45.335Z,927.67
2017-06-10T04:06:13.663Z,927.68
2017-06-10T04:06:42.015Z,927.71
2017-06-10T04:07:10.301Z,927.69
2017-06-10T04:07:38.656Z,927.66
2017-06-10T04:08:49.922Z,927.67
2017-06-10T04:09:18.220Z,927.7
2017-06-10T04:09:46.541Z,927.74
2017-06-10T04:10:14.854Z,927.79
2017-06-10T04:10:43.148Z,927.79
2017-06-10T04:11:11.444Z,927.83
2017-06-10T04:11:39.652Z,927.85
2017-06-10T04:12:07.976Z,927.87
2017-06-10T04:12:36.336Z,927.85
2017-06-10T04:13:04.619Z,927.86
2017-06-10T04:13:32.881Z,927.85
2017-06-10T04:14:44.144Z,927.84
2017-06-10T04:15:12.168Z,927.82
2017-06-10T04:15:40.496Z,927.83
2017-06-10T04:16:08.801Z,927.77
2017-06-10T04:16:36.897Z,927.75
2017-06-10T04:17:05.212Z,927.74
2017-06-10T04:17:33.514Z,927.7
2017-06-10T04:18:01.837Z,927.67
2017-06-10T04:18:30.188Z,927.66
2017-06-10T04:18:58.284Z,927.61
2017-06-10T04:19:26.639Z,927.61
2017-06-10T04:20:37.813Z,927.64
2017-06-10T04:21:06.016Z,927.62
2017-06-10T04:21:34.246Z,927.62
2017-06-10T04:22:02.458Z,927.63
2017-06-10T04:22:30.643Z,927.67
2017-06-10T04:22:58.955Z,927.62
2017-06-10T04:23:27.164Z,927.65
2017-06-10T04:23:55.299Z,927.64
2017-06-10T04:24:23.582Z,927.65
2017-06-10T04:24:51.943Z,927.64
2017-06-10T04:25:20.298Z,927.61
2017-06-10T04:26:31.466Z,927.65
2017-06-10T04:26:59.760Z,927.66
2017-06-10T04:27:28.089Z,927.65
2017-06-10T04:27:56.486Z,927.69
2017-06-10T04:28:24.670Z,927.69
2017-06-10T04:28:52.982Z,927.67
2017-06-10T04:29:21.290Z,927.67
2017-06-10T04:29:49.617Z,927.69
2017-06-10T04:30:17.876Z,927.66
2017-06-10T04:30:46.258Z,927.62
2017-06-10T04:31:14.512Z,927.63
2017-06-10T04:32:25.781Z,927.59
2017-06-10T04:33:08.449Z,927.53
2017-06-10T04:33:36.690Z,927.51
2017-06-10T04:34:05.060Z,927.53
2017-06-10T04:34:33.358Z,927.59
2017-06-10T04:35:01.575Z,927.61
2017-06-10T04:35:29.888Z,927.65
2017-06-10T04:35:58.204Z,927.66
2017-06-10T04:36:26.559Z,927.63
2017-06-10T04:36:54.816Z,927.63
2017-06-10T04:37:22.994Z,927.63
2017-06-10T04:38:40.027Z,927.59
2017-06-10T04:39:08.233Z,927.54
2017-06-10T04:39:36.560Z,927.55
2017-06-10T04:40:04.769Z,927.55
2017-06-10T04:40:32.860Z,927.57
2017-06-10T04:41:01.080Z,927.55
2017-06-10T04:41:29.196Z,927.55
2017-06-10T04:41:57.426Z,927.56
2017-06-10T04:42:25.775Z,927.58
2017-06-10T04:42:53.867Z,927.62
2017-06-10T04:43:22.129Z,927.63
2017-06-10T04:44:33.393Z,927.61
2017-06-10T04:45:01.586Z,927.65
2017-06-10T04:45:29.815Z,927.66
2017-06-10T04:45:58.218Z,927.67
2017-06-10T04:46:26.493Z,927.68
2017-06-10T04:46:54.614Z,927.69
2017-06-10T04:47:22.822Z,927.69
2017-06-10T04:47:51.047Z,927.68
2017-06-10T04:48:19.310Z,927.68
2017-06-10T04:48:47.495Z,927.67
2017-06-10T04:49:15.841Z,927.64
2017-06-10T04:50:27.009Z,927.61
2017-06-10T04:50:55.213Z,927.6
2017-06-10T04:51:23.444Z,927.61
2017-06-10T04:51:51.830Z,927.62
2017-06-10T04:52:20.007Z,927.64
2017-06-10T04:52:48.309Z,927.65
2017-06-10T04:53:16.528Z,927.62
2017-06-10T04:53:44.674Z,927.6
2017-06-10T04:54:12.745Z,927.6
2017-06-10T04:54:41.123Z,927.6
2017-06-10T04:55:09.477Z,927.54
2017-06-10T04:56:20.733Z,927.55
2017-06-10T04:56:49.024Z,927.47
2017-06-10T04:57:17.356Z,927.53
2017-06-10T04:57:45.660Z,927.56
2017-06-10T04:58:13.841Z,927.67
2017-06-10T04:58:42.149Z,927.78
2017-06-10T04:59:10.360Z,927.86
2017-06-10T04:59:38.682Z,927.84
2017-06-10T05:00:07.033Z,927.87
2017-06-10T05:00:35.224Z,927.84
2017-06-10T05:01:03.578Z,927.75
2017-06-10T05:02:14.934Z,927.68
2017-06-10T05:02:43.134Z,927.65
2017-06-10T05:03:11.369Z,927.67
2017-06-10T05:03:39.670Z,927.66
2017-06-10T05:04:07.851Z,927.65
2017-06-10T05:04:36.067Z,927.63
2017-06-10T05:05:04.365Z,927.64
2017-06-10T05:05:32.597Z,927.62
2017-06-10T05:06:00.756Z,927.58
2017-06-10T05:06:29.046Z,927.57
2017-06-10T05:06:57.302Z,927.6
2017-06-10T05:08:08.572Z,927.53
2017-06-10T05:08:36.770Z,927.55
2017-06-10T05:09:05.006Z,927.55
2017-06-10T05:09:33.215Z,927.59
2017-06-10T05:10:01.397Z,927.56
2017-06-10T05:10:29.706Z,927.57
2017-06-10T05:10:58.011Z,927.58
2017-06-10T05:11:26.336Z,927.6
2017-06-10T05:11:54.690Z,927.55
2017-06-10T05:12:22.886Z,927.53
2017-06-10T05:12:51.151Z,927.52
2017-06-10T05:14:02.232Z,927.52
2017-06-10T05:14:30.519Z,927.52
2017-06-10T05:14:58.844Z,927.57
2017-06-10T05:15:27.246Z,927.59
2017-06-10T05:15:55.435Z,927.62
2017-06-10T05:16:23.653Z,927.61
2017-06-10T05:16:51.958Z,927.65
2017-06-10T05:17:20.095Z,927.62
2017-06-10T05:17:48.446Z,927.6
2017-06-10T05:18:16.733Z,927.62
2017-06-10T05:18:44.986Z,927.61
2017-06-10T05:19:56.246Z,927.59
2017-06-10T05:20:24.352Z,927.58
2017-06-10T05:20:52.670Z,927.59
2017-06-10T05:21:20.975Z,927.56
2017-06-10T05:21:49.253Z,927.56
2017-06-10T05:22:17.467Z,927.54
2017-06-10T05:22:45.679Z,927.57
2017-06-10T05:23:13.907Z,927.58
2017-06-10T05:23:42.167Z,927.57
2017-06-10T05:24:10.539Z,927.61
2017-06-10T05:24:38.805Z,927.59
2017-06-10T05:25:49.973Z,927.63
2017-06-10T05:26:18.270Z,927.64
2017-06-10T05:26:46.591Z,927.65
2017-06-10T05:27:14.896Z,927.69
2017-06-10T05:27:43.003Z,927.67
2017-06-10T05:28:11.129Z,927.66
2017-06-10T05:28:39.341Z,927.7
2017-06-10T05:29:07.477Z,927.61
2017-06-10T05:29:35.736Z,927.63
2017-06-10T05:30:04.115Z,927.64
2017-06-10T05:30:32.469Z,927.59
2017-06-10T05:31:43.831Z,927.52
2017-06-10T05:32:12.027Z,927.49
2017-06-10T05:32:40.351Z,927.49
2017-06-10T05:33:08.654Z,927.47
2017-06-10T05:33:36.938Z,927.46
2017-06-10T05:34:05.253Z,927.46
2017-06-10T05:34:33.460Z,927.47
2017-06-10T05:35:01.784Z,927.5
2017-06-10T05:35:30.042Z,927.49
2017-06-10T05:35:58.328Z,927.54
2017-06-10T05:36:26.491Z,927.52
2017-06-10T05:37:37.750Z,927.54
2017-06-10T05:38:06.046Z,927.51
2017-06-10T05:38:34.374Z,927.56
2017-06-10T05:39:02.680Z,927.56
2017-06-10T05:39:30.952Z,927.52
2017-06-10T05:39:59.089Z,927.54
2017-06-10T05:40:27.290Z,927.56
2017-06-10T05:40:55.403Z,927.58
2017-06-10T05:41:23.660Z,927.56
2017-06-10T05:41:51.920Z,927.51
2017-06-10T05:42:20.274Z,927.57
2017-06-10T05:43:31.626Z,927.57
2017-06-10T05:43:59.829Z,927.56
2017-06-10T05:44:28.058Z,927.54
2017-06-10T05:44:56.459Z,927.51
2017-06-10T05:45:24.544Z,927.52
2017-06-10T05:45:52.765Z,927.48
2017-06-10T05:46:21.063Z,927.46
2017-06-10T05:46:49.291Z,927.47
2017-06-10T05:47:17.644Z,927.4
2017-06-10T05:47:46.020Z,927.4
2017-06-10T05:48:14.375Z,927.4
2017-06-10T05:49:25.729Z,927.4
2017-06-10T05:49:53.926Z,927.41
2017-06-10T05:50:22.155Z,927.42
2017-06-10T05:50:50.269Z,927.46
2017-06-10T05:51:18.447Z,927.44
2017-06-10T05:51:46.761Z,927.5
2017-06-10T05:52:14.876Z,927.45
2017-06-10T05:52:43.201Z,927.51
2017-06-10T05:53:11.562Z,927.45
2017-06-10T05:53:39.843Z,927.5
2017-06-10T05:54:08.104Z,927.5
2017-06-10T05:55:19.455Z,927.48
2017-06-10T05:55:47.651Z,927.45
2017-06-10T05:56:15.884Z,927.46
2017-06-10T05:56:44.286Z,927.49
2017-06-10T05:57:12.465Z,927.47
2017-06-10T05:57:40.778Z,927.48
2017-06-10T05:58:08.981Z,927.44
2017-06-10T05:58:37.310Z,927.42
2017-06-10T05:59:05.562Z,927.41
2017-06-10T05:59:33.846Z,927.4
2017-06-10T06:00:02.109Z,927.43
2017-06-10T06:01:13.464Z,927.44
2017-06-10T06:01:41.760Z,927.42
2017-06-10T06:02:09.991Z,927.48
2017-06-10T06:02:38.289Z,927.48
2017-06-10T06:03:06.475Z,927.45
2017-06-10T06:03:34.786Z,927.46
2017-06-10T06:04:02.898Z,927.5
2017-06-10T06:04:31.127Z,927.48
2017-06-10T06:04:59.386Z,927.47
2017-06-10T06:05:27.667Z,927.45
2017-06-10T06:05:56.007Z,927.41
2017-06-10T06:07:07.265Z,927.44
2017-06-10T06:07:35.466Z,927.35
2017-06-10T06:08:03.697Z,927.32
2017-06-10T06:08:31.915Z,927.32
2017-06-10T06:09:00.192Z,927.28
2017-06-10T06:09:28.411Z,927.23
2017-06-10T06:09:56.714Z,927.2
2017-06-10T06:10:24.941Z,927.16
2017-06-10T06:10:53.287Z,927.12
2017-06-10T06:11:21.566Z,927.11
2017-06-10T06:11:49.824Z,927.1
2017-06-10T06:13:01.087Z,927.1
2017-06-10T06:13:29.285Z,927.11
2017-06-10T06:13:57.516Z,927.1
2017-06-10T06:14:25.825Z,927.16
2017-06-10T06:14:53.910Z,927.08
2017-06-10T06:15:22.129Z,927.08
2017-06-10T06:15:50.436Z,927.15
2017-06-10T06:16:18.663Z,927.14
2017-06-10T06:16:47.009Z,927.15
2017-06-10T06:17:15.297Z,927.15
2017-06-10T06:17:43.650Z,927.13
2017-06-10T06:18:54.912Z,927.11
2017-06-10T06:19:22.918Z,927.03
2017-06-10T06:19:51.147Z,927.02
2017-06-10T06:20:19.456Z,926.98
2017-06-10T06:20:47.639Z,926.96
2017-06-10T06:21:15.853Z,926.93
2017-06-10T06:21:43.972Z,926.92
2017-06-10T06:22:12.292Z,926.92
2017-06-10T06:22:40.450Z,926.88
2017-06-10T06:23:08.731Z,926.9
2017-06-10T06:23:36.803Z,926.93
2017-06-10T06:24:47.968Z,926.97
2017-06-10T06:25:15.979Z,927
2017-06-10T06:25:44.306Z,926.98
2017-06-10T06:26:12.606Z,927
2017-06-10T06:26:40.790Z,926.99
2017-06-10T06:27:08.917Z,927.05
2017-06-10T06:27:37.034Z,927.07
2017-06-10T06:28:05.357Z,927.09
2017-06-10T06:28:33.619Z,927.09
2017-06-10T06:29:01.994Z,927.09
2017-06-10T06:29:30.341Z,927.1
2017-06-10T06:30:41.597Z,927.09
2017-06-10T06:31:09.798Z,927.04
2017-06-10T06:31:38.121Z,927.03
2017-06-10T06:32:06.428Z,927.03
2017-06-10T06:32:34.520Z,927
2017-06-10T06:33:02.644Z,926.91
2017-06-10T06:33:30.856Z,926.91
2017-06-10T06:33:59.177Z,926.92
2017-06-10T06:34:27.527Z,926.91
2017-06-10T06:34:55.906Z,926.95
2017-06-10T06:35:24.257Z,926.92
2017-06-10T06:36:35.518Z,926.91
2017-06-10T06:37:03.812Z,926.89
2017-06-10T06:37:32.134Z,926.91
2017-06-10T06:38:00.538Z,926.88
2017-06-10T06:38:28.628Z,926.92
2017-06-10T06:38:56.841Z,926.89
2017-06-10T06:39:25.045Z,926.89
2017-06-10T06:39:53.369Z,926.84
2017-06-10T06:40:21.719Z,926.85
2017-06-10T06:40:50.001Z,926.85
2017-06-10T06:41:18.347Z,926.84
2017-06-10T06:42:29.720Z,926.83
2017-06-10T06:42:57.990Z,926.82
2017-06-10T06:43:26.320Z,926.77
2017-06-10T06:43:54.626Z,926.82